sensor_id;sensor_type;location;lat;lon;timestamp;P1;durP1;ratioP1;P2;durP2;ratioP2
70549;SDS011;58101;48.658;2.328;2022-11-12T00:00:35;34.65;;;16.83;;
70549;SDS011;58101;48.658;2.328;2022-11-12T00:03:02;35.88;;;17.83;;
70549;SDS011;58101;48.658;2.328;2022-11-12T00:05:27;37.35;;;18.08;;
70549;SDS011;58101;48.658;2.328;2022-11-12T00:07:53;32.65;;;16.45;;
70549;SDS011;58101;48.658;2.328;2022-11-12T00:10:19;33.42;;;17.55;;
70549;SDS011;58101;48.658;2.328;2022-11-12T00:12:45;33.60;;;17.00;;
70549;SDS011;58101;48.658;2.328;2022-11-12T00:15:11;34.95;;;17.10;;
70549;SDS011;58101;48.658;2.328;2022-11-12T00:17:36;33.47;;;17.08;;
70549;SDS011;58101;48.658;2.328;2022-11-12T00:20:03;34.50;;;17.13;;
70549;SDS011;58101;48.658;2.328;2022-11-12T00:22:29;36.97;;;18.27;;
70549;SDS011;58101;48.658;2.328;2022-11-12T00:25:00;33.42;;;16.85;;
70549;SDS011;58101;48.658;2.328;2022-11-12T00:27:26;34.63;;;17.17;;
70549;SDS011;58101;48.658;2.328;2022-11-12T00:29:52;36.45;;;18.08;;
70549;SDS011;58101;48.658;2.328;2022-11-12T00:32:17;37.95;;;18.17;;
70549;SDS011;58101;48.658;2.328;2022-11-12T00:34:44;38.53;;;18.75;;
70549;SDS011;58101;48.658;2.328;2022-11-12T00:37:12;38.92;;;19.17;;
70549;SDS011;58101;48.658;2.328;2022-11-12T00:39:38;34.17;;;18.20;;
70549;SDS011;58101;48.658;2.328;2022-11-12T00:42:04;37.60;;;18.38;;
70549;SDS011;58101;48.658;2.328;2022-11-12T00:44:29;36.60;;;18.05;;
70549;SDS011;58101;48.658;2.328;2022-11-12T00:46:55;37.78;;;18.48;;
70549;SDS011;58101;48.658;2.328;2022-11-12T00:49:21;38.10;;;18.42;;
70549;SDS011;58101;48.658;2.328;2022-11-12T00:51:47;38.20;;;18.83;;
70549;SDS011;58101;48.658;2.328;2022-11-12T00:54:13;38.38;;;18.48;;
70549;SDS011;58101;48.658;2.328;2022-11-12T00:56:39;35.75;;;17.73;;
70549;SDS011;58101;48.658;2.328;2022-11-12T00:59:05;38.45;;;19.42;;
70549;SDS011;58101;48.658;2.328;2022-11-12T01:01:31;40.58;;;20.20;;
70549;SDS011;58101;48.658;2.328;2022-11-12T01:03:57;43.28;;;19.60;;
70549;SDS011;58101;48.658;2.328;2022-11-12T01:06:23;40.47;;;20.95;;
70549;SDS011;58101;48.658;2.328;2022-11-12T01:08:49;42.97;;;21.33;;
70549;SDS011;58101;48.658;2.328;2022-11-12T01:11:17;40.35;;;19.77;;
70549;SDS011;58101;48.658;2.328;2022-11-12T01:13:46;40.60;;;20.75;;
70549;SDS011;58101;48.658;2.328;2022-11-12T01:16:17;37.47;;;19.25;;
70549;SDS011;58101;48.658;2.328;2022-11-12T01:18:45;38.65;;;18.98;;
70549;SDS011;58101;48.658;2.328;2022-11-12T01:21:11;41.95;;;20.77;;
70549;SDS011;58101;48.658;2.328;2022-11-12T01:23:38;45.53;;;21.17;;
70549;SDS011;58101;48.658;2.328;2022-11-12T01:28:31;53.15;;;23.88;;
70549;SDS011;58101;48.658;2.328;2022-11-12T01:31:08;50.53;;;22.52;;
70549;SDS011;58101;48.658;2.328;2022-11-12T01:33:54;52.95;;;23.33;;
70549;SDS011;58101;48.658;2.328;2022-11-12T01:36:22;50.90;;;23.60;;
70549;SDS011;58101;48.658;2.328;2022-11-12T01:38:48;53.97;;;25.38;;
70549;SDS011;58101;48.658;2.328;2022-11-12T01:41:16;53.15;;;24.02;;
70549;SDS011;58101;48.658;2.328;2022-11-12T01:43:44;47.78;;;22.98;;
70549;SDS011;58101;48.658;2.328;2022-11-12T01:46:20;46.70;;;22.63;;
70549;SDS011;58101;48.658;2.328;2022-11-12T01:48:51;48.22;;;21.17;;
70549;SDS011;58101;48.658;2.328;2022-11-12T01:51:20;46.53;;;21.45;;
70549;SDS011;58101;48.658;2.328;2022-11-12T01:53:50;46.38;;;21.23;;
70549;SDS011;58101;48.658;2.328;2022-11-12T01:56:21;45.15;;;20.67;;
70549;SDS011;58101;48.658;2.328;2022-11-12T01:58:48;41.63;;;19.98;;
70549;SDS011;58101;48.658;2.328;2022-11-12T02:01:19;39.03;;;19.17;;
70549;SDS011;58101;48.658;2.328;2022-11-12T02:03:45;37.45;;;18.92;;
70549;SDS011;58101;48.658;2.328;2022-11-12T02:06:12;40.58;;;19.73;;
70549;SDS011;58101;48.658;2.328;2022-11-12T02:08:39;40.38;;;19.45;;
70549;SDS011;58101;48.658;2.328;2022-11-12T02:11:10;36.63;;;18.77;;
70549;SDS011;58101;48.658;2.328;2022-11-12T02:13:38;37.30;;;18.20;;
70549;SDS011;58101;48.658;2.328;2022-11-12T02:16:44;39.47;;;17.63;;
70549;SDS011;58101;48.658;2.328;2022-11-12T02:19:11;35.53;;;18.23;;
70549;SDS011;58101;48.658;2.328;2022-11-12T02:21:38;35.72;;;18.00;;
70549;SDS011;58101;48.658;2.328;2022-11-12T02:24:26;35.83;;;17.42;;
70549;SDS011;58101;48.658;2.328;2022-11-12T02:26:50;31.38;;;15.40;;
70549;SDS011;58101;48.658;2.328;2022-11-12T02:29:18;30.73;;;15.80;;
70549;SDS011;58101;48.658;2.328;2022-11-12T02:31:44;32.30;;;14.85;;
70549;SDS011;58101;48.658;2.328;2022-11-12T02:34:09;29.00;;;15.00;;
70549;SDS011;58101;48.658;2.328;2022-11-12T02:36:35;31.63;;;15.43;;
70549;SDS011;58101;48.658;2.328;2022-11-12T02:39:01;29.58;;;14.50;;
70549;SDS011;58101;48.658;2.328;2022-11-12T02:41:26;29.63;;;14.82;;
70549;SDS011;58101;48.658;2.328;2022-11-12T02:43:52;30.23;;;14.85;;
70549;SDS011;58101;48.658;2.328;2022-11-12T02:46:18;29.00;;;14.85;;
70549;SDS011;58101;48.658;2.328;2022-11-12T02:48:43;28.02;;;14.18;;
70549;SDS011;58101;48.658;2.328;2022-11-12T02:51:09;30.88;;;15.00;;
70549;SDS011;58101;48.658;2.328;2022-11-12T02:53:35;31.10;;;14.70;;
70549;SDS011;58101;48.658;2.328;2022-11-12T02:56:00;36.25;;;15.80;;
70549;SDS011;58101;48.658;2.328;2022-11-12T02:58:26;34.28;;;15.10;;
70549;SDS011;58101;48.658;2.328;2022-11-12T03:00:53;40.30;;;15.40;;
70549;SDS011;58101;48.658;2.328;2022-11-12T03:03:19;45.67;;;16.40;;
70549;SDS011;58101;48.658;2.328;2022-11-12T03:05:45;41.38;;;15.82;;
70549;SDS011;58101;48.658;2.328;2022-11-12T03:08:22;46.70;;;16.20;;
70549;SDS011;58101;48.658;2.328;2022-11-12T03:10:48;37.80;;;15.38;;
70549;SDS011;58101;48.658;2.328;2022-11-12T03:13:14;36.67;;;15.43;;
70549;SDS011;58101;48.658;2.328;2022-11-12T03:15:39;51.22;;;16.08;;
70549;SDS011;58101;48.658;2.328;2022-11-12T03:18:05;37.03;;;15.20;;
70549;SDS011;58101;48.658;2.328;2022-11-12T03:20:31;45.05;;;15.00;;
70549;SDS011;58101;48.658;2.328;2022-11-12T03:22:59;33.85;;;14.82;;
70549;SDS011;58101;48.658;2.328;2022-11-12T03:25:27;52.25;;;15.55;;
70549;SDS011;58101;48.658;2.328;2022-11-12T03:28:03;62.00;;;14.88;;
70549;SDS011;58101;48.658;2.328;2022-11-12T03:30:30;47.63;;;15.38;;
70549;SDS011;58101;48.658;2.328;2022-11-12T03:32:57;39.30;;;14.45;;
70549;SDS011;58101;48.658;2.328;2022-11-12T03:35:23;46.45;;;14.90;;
70549;SDS011;58101;48.658;2.328;2022-11-12T03:37:50;40.10;;;14.20;;
70549;SDS011;58101;48.658;2.328;2022-11-12T03:40:16;56.67;;;15.38;;
70549;SDS011;58101;48.658;2.328;2022-11-12T03:42:46;49.30;;;14.45;;
70549;SDS011;58101;48.658;2.328;2022-11-12T03:45:14;53.42;;;15.13;;
70549;SDS011;58101;48.658;2.328;2022-11-12T03:47:50;46.95;;;14.07;;
70549;SDS011;58101;48.658;2.328;2022-11-12T03:50:17;38.15;;;13.50;;
70549;SDS011;58101;48.658;2.328;2022-11-12T03:52:45;38.05;;;13.18;;
70549;SDS011;58101;48.658;2.328;2022-11-12T03:55:12;38.67;;;13.75;;
70549;SDS011;58101;48.658;2.328;2022-11-12T04:00:04;41.15;;;12.73;;
70549;SDS011;58101;48.658;2.328;2022-11-12T04:02:32;37.83;;;11.95;;
70549;SDS011;58101;48.658;2.328;2022-11-12T04:04:57;39.90;;;11.63;;
70549;SDS011;58101;48.658;2.328;2022-11-12T04:07:41;56.33;;;10.73;;
70549;SDS011;58101;48.658;2.328;2022-11-12T04:10:26;37.95;;;9.25;;
70549;SDS011;58101;48.658;2.328;2022-11-12T04:12:54;55.50;;;11.00;;
70549;SDS011;58101;48.658;2.328;2022-11-12T04:15:38;36.75;;;9.95;;
70549;SDS011;58101;48.658;2.328;2022-11-12T04:18:04;47.78;;;9.77;;
70549;SDS011;58101;48.658;2.328;2022-11-12T04:20:48;44.85;;;9.27;;
70549;SDS011;58101;48.658;2.328;2022-11-12T04:23:32;40.92;;;8.10;;
70549;SDS011;58101;48.658;2.328;2022-11-12T04:25:58;64.80;;;10.32;;
70549;SDS011;58101;48.658;2.328;2022-11-12T04:28:42;47.28;;;8.57;;
70549;SDS011;58101;48.658;2.328;2022-11-12T04:31:28;30.15;;;8.40;;
70549;SDS011;58101;48.658;2.328;2022-11-12T04:33:54;52.65;;;8.95;;
70549;SDS011;58101;48.658;2.328;2022-11-12T04:36:19;36.38;;;8.57;;
70549;SDS011;58101;48.658;2.328;2022-11-12T04:38:45;50.25;;;8.52;;
70549;SDS011;58101;48.658;2.328;2022-11-12T04:41:11;41.15;;;9.20;;
70549;SDS011;58101;48.658;2.328;2022-11-12T04:43:55;45.80;;;9.25;;
70549;SDS011;58101;48.658;2.328;2022-11-12T04:46:39;46.00;;;8.85;;
70549;SDS011;58101;48.658;2.328;2022-11-12T04:49:04;31.92;;;9.15;;
70549;SDS011;58101;48.658;2.328;2022-11-12T04:51:30;35.63;;;8.63;;
70549;SDS011;58101;48.658;2.328;2022-11-12T04:54:16;27.80;;;8.50;;
70549;SDS011;58101;48.658;2.328;2022-11-12T04:56:41;34.58;;;8.80;;
70549;SDS011;58101;48.658;2.328;2022-11-12T04:59:07;32.30;;;9.23;;
70549;SDS011;58101;48.658;2.328;2022-11-12T05:01:32;28.88;;;9.00;;
70549;SDS011;58101;48.658;2.328;2022-11-12T05:03:58;43.10;;;8.32;;
70549;SDS011;58101;48.658;2.328;2022-11-12T05:06:24;51.40;;;8.57;;
70549;SDS011;58101;48.658;2.328;2022-11-12T05:09:08;40.63;;;8.43;;
70549;SDS011;58101;48.658;2.328;2022-11-12T05:11:33;39.13;;;8.57;;
70549;SDS011;58101;48.658;2.328;2022-11-12T05:13:59;43.08;;;8.88;;
70549;SDS011;58101;48.658;2.328;2022-11-12T05:16:24;34.05;;;7.80;;
70549;SDS011;58101;48.658;2.328;2022-11-12T05:18:50;43.83;;;8.32;;
70549;SDS011;58101;48.658;2.328;2022-11-12T05:21:16;35.55;;;8.32;;
70549;SDS011;58101;48.658;2.328;2022-11-12T05:24:00;47.35;;;9.15;;
70549;SDS011;58101;48.658;2.328;2022-11-12T05:26:25;35.03;;;8.63;;
70549;SDS011;58101;48.658;2.328;2022-11-12T05:28:51;32.83;;;7.80;;
70549;SDS011;58101;48.658;2.328;2022-11-12T05:31:16;20.70;;;7.80;;
70549;SDS011;58101;48.658;2.328;2022-11-12T05:33:42;26.33;;;8.90;;
70549;SDS011;58101;48.658;2.328;2022-11-12T05:36:08;26.83;;;7.88;;
70549;SDS011;58101;48.658;2.328;2022-11-12T05:38:33;48.67;;;8.90;;
70549;SDS011;58101;48.658;2.328;2022-11-12T05:40:59;32.10;;;8.02;;
70549;SDS011;58101;48.658;2.328;2022-11-12T05:43:24;28.48;;;8.05;;
70549;SDS011;58101;48.658;2.328;2022-11-12T05:45:50;44.80;;;7.95;;
70549;SDS011;58101;48.658;2.328;2022-11-12T05:48:16;38.22;;;8.20;;
70549;SDS011;58101;48.658;2.328;2022-11-12T05:50:41;34.10;;;8.35;;
70549;SDS011;58101;48.658;2.328;2022-11-12T05:53:07;34.40;;;8.13;;
70549;SDS011;58101;48.658;2.328;2022-11-12T05:55:33;29.58;;;8.65;;
70549;SDS011;58101;48.658;2.328;2022-11-12T05:58:02;28.42;;;7.40;;
70549;SDS011;58101;48.658;2.328;2022-11-12T06:00:29;26.70;;;8.13;;
70549;SDS011;58101;48.658;2.328;2022-11-12T06:02:56;26.48;;;7.93;;
70549;SDS011;58101;48.658;2.328;2022-11-12T06:05:22;27.75;;;8.27;;
70549;SDS011;58101;48.658;2.328;2022-11-12T06:07:48;28.67;;;7.25;;
70549;SDS011;58101;48.658;2.328;2022-11-12T06:10:13;35.67;;;6.72;;
70549;SDS011;58101;48.658;2.328;2022-11-12T06:12:39;39.85;;;6.20;;
70549;SDS011;58101;48.658;2.328;2022-11-12T06:15:08;29.73;;;6.57;;
70549;SDS011;58101;48.658;2.328;2022-11-12T06:17:34;40.80;;;5.80;;
70549;SDS011;58101;48.658;2.328;2022-11-12T06:19:59;69.55;;;6.65;;
70549;SDS011;58101;48.658;2.328;2022-11-12T06:22:25;36.17;;;5.93;;
70549;SDS011;58101;48.658;2.328;2022-11-12T06:24:50;44.88;;;6.72;;
70549;SDS011;58101;48.658;2.328;2022-11-12T06:27:16;47.35;;;6.03;;
70549;SDS011;58101;48.658;2.328;2022-11-12T06:29:42;72.00;;;7.15;;
70549;SDS011;58101;48.658;2.328;2022-11-12T06:32:07;30.58;;;5.72;;
70549;SDS011;58101;48.658;2.328;2022-11-12T06:34:33;38.55;;;5.75;;
70549;SDS011;58101;48.658;2.328;2022-11-12T06:36:58;43.78;;;6.40;;
70549;SDS011;58101;48.658;2.328;2022-11-12T06:39:24;32.22;;;6.40;;
70549;SDS011;58101;48.658;2.328;2022-11-12T06:41:50;25.75;;;5.57;;
70549;SDS011;58101;48.658;2.328;2022-11-12T06:44:15;25.33;;;5.20;;
70549;SDS011;58101;48.658;2.328;2022-11-12T06:46:41;34.92;;;5.88;;
70549;SDS011;58101;48.658;2.328;2022-11-12T06:49:07;31.08;;;5.15;;
70549;SDS011;58101;48.658;2.328;2022-11-12T06:51:33;26.27;;;5.47;;
70549;SDS011;58101;48.658;2.328;2022-11-12T06:53:58;30.63;;;5.00;;
70549;SDS011;58101;48.658;2.328;2022-11-12T06:56:24;25.00;;;5.45;;
70549;SDS011;58101;48.658;2.328;2022-11-12T06:58:49;17.45;;;5.28;;
70549;SDS011;58101;48.658;2.328;2022-11-12T07:01:16;27.05;;;5.53;;
70549;SDS011;58101;48.658;2.328;2022-11-12T07:03:42;30.27;;;6.18;;
70549;SDS011;58101;48.658;2.328;2022-11-12T07:06:09;31.00;;;5.60;;
70549;SDS011;58101;48.658;2.328;2022-11-12T07:08:39;37.55;;;6.25;;
70549;SDS011;58101;48.658;2.328;2022-11-12T07:13:47;39.28;;;5.50;;
70549;SDS011;58101;48.658;2.328;2022-11-12T07:16:13;35.65;;;5.50;;
70549;SDS011;58101;48.658;2.328;2022-11-12T07:18:45;25.58;;;5.45;;
70549;SDS011;58101;48.658;2.328;2022-11-12T07:21:13;22.38;;;5.38;;
70549;SDS011;58101;48.658;2.328;2022-11-12T07:23:42;26.30;;;5.35;;
70549;SDS011;58101;48.658;2.328;2022-11-12T07:28:45;32.10;;;5.70;;
70549;SDS011;58101;48.658;2.328;2022-11-12T07:31:12;42.60;;;6.30;;
70549;SDS011;58101;48.658;2.328;2022-11-12T07:33:39;25.45;;;5.60;;
70549;SDS011;58101;48.658;2.328;2022-11-12T07:36:09;33.38;;;5.88;;
70549;SDS011;58101;48.658;2.328;2022-11-12T07:38:39;33.50;;;6.43;;
70549;SDS011;58101;48.658;2.328;2022-11-12T07:41:07;34.42;;;5.72;;
70549;SDS011;58101;48.658;2.328;2022-11-12T07:43:38;21.95;;;5.63;;
70549;SDS011;58101;48.658;2.328;2022-11-12T07:46:07;27.05;;;5.50;;
70549;SDS011;58101;48.658;2.328;2022-11-12T07:48:38;29.85;;;5.68;;
70549;SDS011;58101;48.658;2.328;2022-11-12T07:53:37;29.40;;;5.82;;
70549;SDS011;58101;48.658;2.328;2022-11-12T07:56:03;23.83;;;5.85;;
70549;SDS011;58101;48.658;2.328;2022-11-12T07:58:29;19.73;;;6.18;;
70549;SDS011;58101;48.658;2.328;2022-11-12T08:00:56;29.42;;;6.10;;
70549;SDS011;58101;48.658;2.328;2022-11-12T08:03:32;29.50;;;5.88;;
70549;SDS011;58101;48.658;2.328;2022-11-12T08:05:59;24.38;;;5.72;;
70549;SDS011;58101;48.658;2.328;2022-11-12T08:11:29;25.13;;;6.47;;
70549;SDS011;58101;48.658;2.328;2022-11-12T08:13:55;25.25;;;5.63;;
70549;SDS011;58101;48.658;2.328;2022-11-12T08:16:24;21.38;;;6.05;;
70549;SDS011;58101;48.658;2.328;2022-11-12T08:18:50;19.60;;;5.88;;
70549;SDS011;58101;48.658;2.328;2022-11-12T08:21:16;27.08;;;6.28;;
70549;SDS011;58101;48.658;2.328;2022-11-12T08:23:45;30.38;;;6.68;;
70549;SDS011;58101;48.658;2.328;2022-11-12T08:26:13;32.45;;;6.35;;
70549;SDS011;58101;48.658;2.328;2022-11-12T08:28:40;35.47;;;6.53;;
70549;SDS011;58101;48.658;2.328;2022-11-12T08:31:08;31.67;;;9.90;;
70549;SDS011;58101;48.658;2.328;2022-11-12T08:33:35;28.95;;;7.70;;
70549;SDS011;58101;48.658;2.328;2022-11-12T08:36:05;112.45;;;32.30;;
70549;SDS011;58101;48.658;2.328;2022-11-12T08:38:35;61.00;;;20.05;;
70549;SDS011;58101;48.658;2.328;2022-11-12T08:41:02;57.05;;;15.77;;
70549;SDS011;58101;48.658;2.328;2022-11-12T08:48:47;32.50;;;8.95;;
70549;SDS011;58101;48.658;2.328;2022-11-12T08:51:13;19.33;;;7.57;;
70549;SDS011;58101;48.658;2.328;2022-11-12T08:53:42;23.13;;;7.80;;
70549;SDS011;58101;48.658;2.328;2022-11-12T08:56:13;23.02;;;8.00;;
70549;SDS011;58101;48.658;2.328;2022-11-12T09:01:32;27.15;;;7.05;;
70549;SDS011;58101;48.658;2.328;2022-11-12T09:03:58;24.98;;;6.13;;
70549;SDS011;58101;48.658;2.328;2022-11-12T09:06:23;19.05;;;6.47;;
70549;SDS011;58101;48.658;2.328;2022-11-12T09:08:49;28.80;;;7.25;;
70549;SDS011;58101;48.658;2.328;2022-11-12T09:11:15;20.70;;;6.40;;
70549;SDS011;58101;48.658;2.328;2022-11-12T09:13:41;24.83;;;7.72;;
70549;SDS011;58101;48.658;2.328;2022-11-12T09:16:08;21.85;;;8.13;;
70549;SDS011;58101;48.658;2.328;2022-11-12T09:18:34;19.35;;;8.20;;
70549;SDS011;58101;48.658;2.328;2022-11-12T09:21:08;30.48;;;8.18;;
70549;SDS011;58101;48.658;2.328;2022-11-12T09:23:38;22.45;;;8.20;;
70549;SDS011;58101;48.658;2.328;2022-11-12T09:26:04;19.77;;;7.38;;
70549;SDS011;58101;48.658;2.328;2022-11-12T09:28:30;20.90;;;8.18;;
70549;SDS011;58101;48.658;2.328;2022-11-12T09:30:56;18.65;;;7.53;;
70549;SDS011;58101;48.658;2.328;2022-11-12T09:38:15;15.63;;;6.90;;
70549;SDS011;58101;48.658;2.328;2022-11-12T09:43:24;23.38;;;7.82;;
70549;SDS011;58101;48.658;2.328;2022-11-12T09:46:00;15.65;;;7.18;;
70549;SDS011;58101;48.658;2.328;2022-11-12T09:48:49;16.05;;;6.88;;
70549;SDS011;58101;48.658;2.328;2022-11-12T09:51:24;16.23;;;7.63;;
70549;SDS011;58101;48.658;2.328;2022-11-12T09:54:03;15.38;;;7.28;;
70549;SDS011;58101;48.658;2.328;2022-11-12T09:56:37;16.65;;;6.30;;
70549;SDS011;58101;48.658;2.328;2022-11-12T09:59:07;14.98;;;7.20;;
70549;SDS011;58101;48.658;2.328;2022-11-12T10:04:38;15.05;;;7.03;;
70549;SDS011;58101;48.658;2.328;2022-11-12T10:15:38;13.45;;;6.28;;
70549;SDS011;58101;48.658;2.328;2022-11-12T10:18:33;14.27;;;6.82;;
70549;SDS011;58101;48.658;2.328;2022-11-12T10:24:02;14.63;;;7.05;;
70549;SDS011;58101;48.658;2.328;2022-11-12T10:26:32;16.70;;;7.57;;
70549;SDS011;58101;48.658;2.328;2022-11-12T10:31:46;18.35;;;8.48;;
70549;SDS011;58101;48.658;2.328;2022-11-12T10:36:37;18.70;;;9.20;;
70549;SDS011;58101;48.658;2.328;2022-11-12T10:39:46;18.00;;;8.75;;
70549;SDS011;58101;48.658;2.328;2022-11-12T10:42:18;18.23;;;8.15;;
70549;SDS011;58101;48.658;2.328;2022-11-12T10:44:45;18.17;;;8.90;;
70549;SDS011;58101;48.658;2.328;2022-11-12T10:47:54;20.17;;;9.02;;
70549;SDS011;58101;48.658;2.328;2022-11-12T10:53:09;18.85;;;9.15;;
70549;SDS011;58101;48.658;2.328;2022-11-12T10:55:37;18.50;;;8.70;;
70549;SDS011;58101;48.658;2.328;2022-11-12T10:58:20;17.02;;;8.38;;
70549;SDS011;58101;48.658;2.328;2022-11-12T11:00:56;19.08;;;8.60;;
70549;SDS011;58101;48.658;2.328;2022-11-12T11:03:43;16.95;;;8.23;;
70549;SDS011;58101;48.658;2.328;2022-11-12T11:08:44;18.08;;;8.80;;
70549;SDS011;58101;48.658;2.328;2022-11-12T11:13:41;18.77;;;9.60;;
70549;SDS011;58101;48.658;2.328;2022-11-12T11:16:09;17.92;;;9.60;;
70549;SDS011;58101;48.658;2.328;2022-11-12T11:18:38;18.60;;;10.02;;
70549;SDS011;58101;48.658;2.328;2022-11-12T11:23:55;21.92;;;11.18;;
70549;SDS011;58101;48.658;2.328;2022-11-12T11:31:54;20.25;;;10.27;;
70549;SDS011;58101;48.658;2.328;2022-11-12T11:37:26;24.00;;;11.93;;
70549;SDS011;58101;48.658;2.328;2022-11-12T11:46:05;23.63;;;11.82;;
70549;SDS011;58101;48.658;2.328;2022-11-12T11:51:04;25.98;;;11.98;;
70549;SDS011;58101;48.658;2.328;2022-11-12T11:56:31;23.77;;;12.50;;
70549;SDS011;58101;48.658;2.328;2022-11-12T11:59:07;24.95;;;13.50;;
70549;SDS011;58101;48.658;2.328;2022-11-12T12:02:11;20.85;;;11.45;;
70549;SDS011;58101;48.658;2.328;2022-11-12T12:07:31;21.92;;;12.27;;
70549;SDS011;58101;48.658;2.328;2022-11-12T12:12:59;29.17;;;16.38;;
70549;SDS011;58101;48.658;2.328;2022-11-12T12:15:41;23.90;;;14.13;;
70549;SDS011;58101;48.658;2.328;2022-11-12T12:21:14;18.98;;;11.88;;
70549;SDS011;58101;48.658;2.328;2022-11-12T12:23:47;24.10;;;14.30;;
70549;SDS011;58101;48.658;2.328;2022-11-12T12:26:29;22.20;;;12.23;;
70549;SDS011;58101;48.658;2.328;2022-11-12T12:29:10;20.27;;;12.50;;
70549;SDS011;58101;48.658;2.328;2022-11-12T12:31:52;21.33;;;13.02;;
70549;SDS011;58101;48.658;2.328;2022-11-12T12:34:49;17.95;;;11.43;;
70549;SDS011;58101;48.658;2.328;2022-11-12T12:42:31;19.50;;;11.23;;
70549;SDS011;58101;48.658;2.328;2022-11-12T12:48:10;19.42;;;12.57;;
70549;SDS011;58101;48.658;2.328;2022-11-12T12:50:43;20.33;;;13.15;;
70549;SDS011;58101;48.658;2.328;2022-11-12T12:55:58;19.92;;;12.18;;
70549;SDS011;58101;48.658;2.328;2022-11-12T13:06:21;21.40;;;12.23;;
70549;SDS011;58101;48.658;2.328;2022-11-12T13:17:13;13.75;;;8.55;;
70549;SDS011;58101;48.658;2.328;2022-11-12T13:32:41;15.57;;;7.53;;
70549;SDS011;58101;48.658;2.328;2022-11-12T13:40:12;15.30;;;7.63;;
70549;SDS011;58101;48.658;2.328;2022-11-12T13:42:40;14.48;;;7.53;;
70549;SDS011;58101;48.658;2.328;2022-11-12T13:45:13;19.08;;;8.20;;
70549;SDS011;58101;48.658;2.328;2022-11-12T13:47:40;16.55;;;7.80;;
70549;SDS011;58101;48.658;2.328;2022-11-12T13:50:07;16.08;;;7.15;;
70549;SDS011;58101;48.658;2.328;2022-11-12T13:52:37;14.15;;;7.25;;
70549;SDS011;58101;48.658;2.328;2022-11-12T13:55:14;14.68;;;7.70;;
70549;SDS011;58101;48.658;2.328;2022-11-12T13:57:47;14.40;;;7.55;;
70549;SDS011;58101;48.658;2.328;2022-11-12T14:00:28;13.98;;;7.25;;
70549;SDS011;58101;48.658;2.328;2022-11-12T14:03:04;13.45;;;7.25;;
70549;SDS011;58101;48.658;2.328;2022-11-12T14:05:32;14.07;;;7.43;;
70549;SDS011;58101;48.658;2.328;2022-11-12T14:10:44;13.50;;;6.78;;
70549;SDS011;58101;48.658;2.328;2022-11-12T14:13:47;13.98;;;7.30;;
70549;SDS011;58101;48.658;2.328;2022-11-12T14:16:40;14.60;;;6.97;;
70549;SDS011;58101;48.658;2.328;2022-11-12T14:22:17;14.25;;;7.30;;
70549;SDS011;58101;48.658;2.328;2022-11-12T14:24:45;15.38;;;7.00;;
70549;SDS011;58101;48.658;2.328;2022-11-12T14:30:12;12.73;;;6.55;;
70549;SDS011;58101;48.658;2.328;2022-11-12T14:32:41;13.48;;;6.90;;
70549;SDS011;58101;48.658;2.328;2022-11-12T14:35:27;13.13;;;6.70;;
70549;SDS011;58101;48.658;2.328;2022-11-12T14:38:03;14.43;;;7.13;;
70549;SDS011;58101;48.658;2.328;2022-11-12T14:41:17;16.15;;;7.82;;
70549;SDS011;58101;48.658;2.328;2022-11-12T14:48:45;14.00;;;6.78;;
70549;SDS011;58101;48.658;2.328;2022-11-12T14:51:15;13.57;;;6.68;;
70549;SDS011;58101;48.658;2.328;2022-11-12T14:54:28;14.60;;;6.43;;
70549;SDS011;58101;48.658;2.328;2022-11-12T14:56:35;10.65;;;5.50;;
70549;SDS011;58101;48.658;2.328;2022-11-12T14:59:05;10.82;;;5.25;;
70549;SDS011;58101;48.658;2.328;2022-11-12T15:01:32;11.50;;;5.55;;
70549;SDS011;58101;48.658;2.328;2022-11-12T15:04:19;12.02;;;5.32;;
70549;SDS011;58101;48.658;2.328;2022-11-12T15:06:55;11.73;;;5.85;;
70549;SDS011;58101;48.658;2.328;2022-11-12T15:09:32;10.85;;;5.22;;
70549;SDS011;58101;48.658;2.328;2022-11-12T15:12:00;11.77;;;5.25;;
70549;SDS011;58101;48.658;2.328;2022-11-12T15:14:28;11.32;;;5.18;;
70549;SDS011;58101;48.658;2.328;2022-11-12T15:16:54;11.88;;;5.22;;
70549;SDS011;58101;48.658;2.328;2022-11-12T15:19:20;12.80;;;5.63;;
70549;SDS011;58101;48.658;2.328;2022-11-12T15:24:25;12.60;;;5.78;;
70549;SDS011;58101;48.658;2.328;2022-11-12T15:27:01;11.88;;;5.75;;
70549;SDS011;58101;48.658;2.328;2022-11-12T15:29:47;11.77;;;5.68;;
70549;SDS011;58101;48.658;2.328;2022-11-12T15:37:04;14.57;;;5.75;;
70549;SDS011;58101;48.658;2.328;2022-11-12T15:42:24;15.75;;;6.13;;
70549;SDS011;58101;48.658;2.328;2022-11-12T15:45:24;10.68;;;5.82;;
70549;SDS011;58101;48.658;2.328;2022-11-12T15:47:49;12.95;;;6.28;;
70549;SDS011;58101;48.658;2.328;2022-11-12T15:50:16;12.38;;;5.80;;
70549;SDS011;58101;48.658;2.328;2022-11-12T15:52:48;13.77;;;6.50;;
70549;SDS011;58101;48.658;2.328;2022-11-12T15:55:14;13.07;;;6.55;;
70549;SDS011;58101;48.658;2.328;2022-11-12T15:57:45;13.23;;;6.53;;
70549;SDS011;58101;48.658;2.328;2022-11-12T16:00:15;14.15;;;6.50;;
70549;SDS011;58101;48.658;2.328;2022-11-12T16:02:42;15.40;;;7.03;;
70549;SDS011;58101;48.658;2.328;2022-11-12T16:05:16;15.57;;;6.75;;
70549;SDS011;58101;48.658;2.328;2022-11-12T16:07:42;13.70;;;6.85;;
70549;SDS011;58101;48.658;2.328;2022-11-12T16:10:11;15.32;;;7.53;;
70549;SDS011;58101;48.658;2.328;2022-11-12T16:12:39;15.73;;;7.57;;
70549;SDS011;58101;48.658;2.328;2022-11-12T16:15:23;17.45;;;8.35;;
70549;SDS011;58101;48.658;2.328;2022-11-12T16:17:50;18.55;;;8.43;;
70549;SDS011;58101;48.658;2.328;2022-11-12T16:20:18;18.38;;;8.38;;
70549;SDS011;58101;48.658;2.328;2022-11-12T16:22:55;19.38;;;9.02;;
70549;SDS011;58101;48.658;2.328;2022-11-12T16:25:21;20.25;;;8.57;;
70549;SDS011;58101;48.658;2.328;2022-11-12T16:27:49;19.80;;;9.27;;
70549;SDS011;58101;48.658;2.328;2022-11-12T16:30:15;19.25;;;8.63;;
70549;SDS011;58101;48.658;2.328;2022-11-12T16:32:43;17.23;;;8.35;;
70549;SDS011;58101;48.658;2.328;2022-11-12T16:35:09;17.20;;;8.20;;
70549;SDS011;58101;48.658;2.328;2022-11-12T16:37:35;19.27;;;8.63;;
70549;SDS011;58101;48.658;2.328;2022-11-12T16:40:05;18.08;;;9.30;;
70549;SDS011;58101;48.658;2.328;2022-11-12T16:42:35;19.85;;;9.68;;
70549;SDS011;58101;48.658;2.328;2022-11-12T16:45:01;20.27;;;10.70;;
70549;SDS011;58101;48.658;2.328;2022-11-12T16:47:27;21.70;;;11.15;;
70549;SDS011;58101;48.658;2.328;2022-11-12T16:49:52;21.70;;;10.65;;
70549;SDS011;58101;48.658;2.328;2022-11-12T16:52:18;22.02;;;10.80;;
70549;SDS011;58101;48.658;2.328;2022-11-12T16:54:43;23.90;;;11.18;;
70549;SDS011;58101;48.658;2.328;2022-11-12T16:57:09;25.05;;;12.27;;
70549;SDS011;58101;48.658;2.328;2022-11-12T16:59:35;22.85;;;11.93;;
70549;SDS011;58101;48.658;2.328;2022-11-12T17:02:01;20.20;;;11.05;;
70549;SDS011;58101;48.658;2.328;2022-11-12T17:04:26;24.08;;;12.10;;
70549;SDS011;58101;48.658;2.328;2022-11-12T17:06:52;22.17;;;11.25;;
70549;SDS011;58101;48.658;2.328;2022-11-12T17:09:18;25.38;;;13.38;;
70549;SDS011;58101;48.658;2.328;2022-11-12T17:11:43;27.77;;;12.57;;
70549;SDS011;58101;48.658;2.328;2022-11-12T17:14:09;26.00;;;12.15;;
70549;SDS011;58101;48.658;2.328;2022-11-12T17:16:35;26.25;;;12.70;;
70549;SDS011;58101;48.658;2.328;2022-11-12T17:19:01;28.95;;;14.63;;
70549;SDS011;58101;48.658;2.328;2022-11-12T17:21:27;30.83;;;15.77;;
70549;SDS011;58101;48.658;2.328;2022-11-12T17:23:53;37.33;;;17.80;;